createdAt,value
2023-12-30T00:00:53.338Z,0.60
2023-12-30T00:03:25.220Z,0.70
2023-12-30T00:05:54.820Z,0.60
2023-12-30T00:08:47.629Z,0.82
2023-12-30T00:11:40.389Z,0.50
2023-12-30T00:14:18.951Z,0.80
2023-12-30T00:16:50.083Z,0.45
2023-12-30T00:19:46.227Z,0.63
2023-12-30T00:22:36.185Z,1.00
2023-12-30T00:30:41.355Z,0.50
2023-12-30T00:33:32.942Z,0.60
2023-12-30T00:36:24.005Z,0.70
2023-12-30T00:38:59.967Z,0.57
2023-12-30T00:41:51.492Z,0.60
2023-12-30T00:44:25.410Z,0.60
2023-12-30T00:46:59.290Z,1.13
2023-12-30T00:49:28.733Z,0.47
2023-12-30T00:52:00.219Z,0.90
2023-12-30T00:54:38.361Z,0.60
2023-12-30T00:57:29.777Z,0.50
2023-12-30T01:00:22.629Z,0.57
2023-12-30T01:02:54.073Z,0.50
2023-12-30T01:05:26.554Z,0.50
2023-12-30T01:08:16.242Z,0.30
2023-12-30T01:10:48.010Z,0.50
2023-12-30T01:13:24.874Z,0.50
2023-12-30T01:15:54.475Z,0.60
2023-12-30T01:18:25.340Z,0.88
2023-12-30T01:21:41.482Z,0.70
2023-12-30T01:24:17.038Z,1.08
2023-12-30T01:26:54.954Z,0.85
2023-12-30T01:29:37.914Z,0.50
2023-12-30T01:32:16.007Z,1.20
2023-12-30T01:34:45.736Z,2.47
2023-12-30T01:37:15.394Z,1.30
2023-12-30T01:39:47.340Z,0.90
2023-12-30T01:42:16.779Z,0.35
2023-12-30T01:44:46.361Z,0.63
2023-12-30T01:47:18.047Z,0.40
2023-12-30T01:49:48.289Z,0.50
2023-12-30T01:52:22.699Z,0.40
2023-12-30T01:54:52.406Z,0.47
2023-12-30T01:57:25.541Z,0.38
2023-12-30T02:00:24.932Z,0.50
2023-12-30T02:03:12.426Z,0.40
2023-12-30T02:05:44.692Z,0.55
2023-12-30T02:08:18.710Z,0.30
2023-12-30T02:10:55.055Z,0.45
2023-12-30T02:13:25.681Z,0.35
2023-12-30T02:15:57.976Z,0.60
2023-12-30T02:18:27.535Z,0.50
2023-12-30T02:20:57.000Z,0.40
2023-12-30T02:23:26.364Z,0.30
2023-12-30T02:25:56.974Z,0.50
2023-12-30T02:28:26.346Z,1.23
2023-12-30T02:30:55.725Z,0.47
2023-12-30T02:33:30.946Z,0.55
2023-12-30T02:36:03.372Z,0.47
2023-12-30T02:38:33.451Z,0.60
2023-12-30T02:41:04.702Z,1.13
2023-12-30T02:43:52.829Z,0.40
2023-12-30T02:46:24.671Z,0.50
2023-12-30T02:48:56.665Z,0.60
2023-12-30T02:52:01.410Z,0.60
2023-12-30T02:54:24.489Z,0.70
2023-12-30T02:56:58.088Z,0.60
2023-12-30T02:59:29.483Z,0.68
2023-12-30T03:01:59.574Z,0.80
2023-12-30T03:04:32.728Z,0.88
2023-12-30T03:07:05.450Z,0.50
2023-12-30T03:09:36.086Z,0.90
2023-12-30T03:12:06.031Z,1.13
2023-12-30T03:14:35.417Z,1.08
2023-12-30T03:17:05.139Z,2.78
2023-12-30T03:19:37.738Z,2.80
2023-12-30T03:22:07.667Z,1.50
2023-12-30T03:24:36.949Z,1.85
2023-12-30T03:27:10.108Z,1.00
2023-12-30T03:29:39.766Z,1.30
2023-12-30T03:32:09.018Z,1.13
2023-12-30T03:34:40.881Z,0.85
2023-12-30T03:37:10.998Z,0.73
2023-12-30T03:39:40.512Z,0.90
2023-12-30T03:42:12.049Z,1.67
2023-12-30T03:44:47.115Z,2.05
2023-12-30T03:47:16.712Z,1.25
2023-12-30T03:49:52.284Z,1.33
2023-12-30T03:52:42.065Z,1.50
2023-12-30T03:55:11.683Z,1.10
2023-12-30T03:57:41.454Z,0.90
2023-12-30T04:00:16.165Z,0.88
2023-12-30T04:02:49.290Z,1.10
2023-12-30T04:05:25.444Z,1.98
2023-12-30T04:08:12.124Z,3.45
2023-12-30T04:10:41.586Z,2.75
2023-12-30T04:13:13.259Z,1.05
2023-12-30T04:15:44.379Z,0.82
2023-12-30T04:18:16.344Z,0.80
2023-12-30T04:20:45.717Z,1.10
2023-12-30T04:23:20.030Z,1.10
2023-12-30T04:25:55.010Z,1.30
2023-12-30T04:28:24.661Z,1.65
2023-12-30T04:30:54.638Z,1.70
2023-12-30T04:33:24.486Z,1.90
2023-12-30T04:35:55.477Z,2.10
2023-12-30T04:38:31.499Z,2.30
2023-12-30T04:41:20.866Z,3.38
2023-12-30T04:43:50.275Z,6.15
2023-12-30T04:46:29.856Z,5.22
2023-12-30T04:50:08.831Z,9.68
2023-12-30T04:51:56.240Z,3.53
2023-12-30T04:54:27.563Z,3.00
2023-12-30T04:56:59.001Z,2.17
2023-12-30T04:59:31.380Z,2.15
2023-12-30T05:02:20.639Z,1.67
2023-12-30T05:05:10.497Z,1.50
2023-12-30T05:07:42.742Z,1.30
2023-12-30T05:10:14.475Z,1.60
2023-12-30T05:12:48.760Z,1.23
2023-12-30T05:15:18.301Z,1.00
2023-12-30T05:17:47.776Z,1.00
2023-12-30T05:20:25.163Z,1.23
2023-12-30T05:25:45.426Z,1.40
2023-12-30T05:28:17.418Z,1.85
2023-12-30T05:30:46.716Z,1.58
2023-12-30T05:33:18.553Z,3.22
2023-12-30T05:35:52.957Z,5.10
2023-12-30T05:38:23.931Z,7.70
2023-12-30T05:40:53.536Z,7.07
2023-12-30T05:43:27.831Z,4.63
2023-12-30T05:45:57.556Z,2.63
2023-12-30T05:48:28.136Z,1.27
2023-12-30T05:50:57.728Z,1.90
2023-12-30T05:53:27.056Z,1.70
2023-12-30T05:55:59.603Z,1.73
2023-12-30T05:58:31.166Z,1.20
2023-12-30T06:01:04.498Z,1.67
2023-12-30T06:03:37.439Z,5.03
2023-12-30T06:06:07.325Z,14.00
2023-12-30T06:08:37.610Z,11.35
2023-12-30T06:11:07.388Z,15.48
2023-12-30T06:13:37.395Z,21.92
2023-12-30T06:16:14.402Z,21.13
2023-12-30T06:18:43.781Z,9.80
2023-12-30T06:21:13.778Z,0.90
2023-12-30T06:23:48.658Z,1.15
2023-12-30T06:26:33.626Z,1.20
2023-12-30T06:29:04.067Z,1.30
2023-12-30T06:31:43.325Z,1.00
2023-12-30T06:34:15.260Z,1.10
2023-12-30T06:37:07.106Z,1.30
2023-12-30T06:39:41.460Z,1.30
2023-12-30T06:45:03.686Z,1.10
2023-12-30T06:47:32.953Z,8.30
2023-12-30T06:50:03.951Z,13.30
2023-12-30T06:52:33.539Z,18.65
2023-12-30T06:55:20.745Z,17.67
2023-12-30T06:58:03.210Z,10.48
2023-12-30T07:00:35.997Z,3.47
2023-12-30T07:03:05.969Z,2.58
2023-12-30T07:05:39.776Z,4.45
2023-12-30T07:08:09.283Z,6.32
2023-12-30T07:10:38.530Z,3.92
2023-12-30T07:13:11.542Z,2.20
2023-12-30T07:15:47.480Z,1.63
2023-12-30T07:18:37.545Z,4.15
2023-12-30T07:21:07.224Z,3.45
2023-12-30T07:23:36.669Z,2.45
2023-12-30T07:26:09.345Z,3.08
2023-12-30T07:28:38.656Z,7.57
2023-12-30T07:31:09.071Z,5.40
2023-12-30T07:33:41.676Z,7.43
2023-12-30T07:36:12.881Z,7.28
2023-12-30T07:39:04.378Z,5.50
2023-12-30T07:41:40.550Z,2.10
2023-12-30T07:44:12.872Z,1.42
2023-12-30T07:46:45.114Z,1.30
2023-12-30T07:49:14.570Z,1.05
2023-12-30T07:51:43.795Z,0.80
2023-12-30T07:54:16.069Z,1.08
2023-12-30T07:56:45.696Z,0.80
2023-12-30T07:59:17.172Z,0.73
2023-12-30T08:01:46.660Z,0.90
2023-12-30T08:04:21.508Z,0.93
2023-12-30T08:06:51.925Z,1.08
2023-12-30T08:09:21.483Z,3.97
2023-12-30T08:11:59.071Z,4.35
2023-12-30T08:14:48.837Z,3.92
2023-12-30T08:17:18.297Z,2.83
2023-12-30T08:19:50.060Z,1.65
2023-12-30T08:22:22.828Z,1.42
2023-12-30T08:24:56.103Z,2.20
2023-12-30T08:27:28.028Z,2.57
2023-12-30T08:30:00.662Z,1.60
2023-12-30T08:32:30.199Z,1.63
2023-12-30T08:34:59.585Z,1.33
2023-12-30T08:37:28.968Z,0.90
2023-12-30T08:39:58.130Z,0.90
2023-12-30T08:42:27.671Z,0.90
2023-12-30T08:44:57.026Z,0.57
2023-12-30T08:47:38.179Z,0.90
2023-12-30T08:50:30.421Z,0.80
2023-12-30T08:53:00.026Z,0.90
2023-12-30T08:55:29.639Z,0.80
2023-12-30T08:57:58.959Z,0.70
2023-12-30T09:00:31.161Z,0.70
2023-12-30T09:03:00.974Z,1.00
2023-12-30T09:05:30.401Z,0.85
2023-12-30T09:08:00.407Z,0.88
2023-12-30T09:10:33.737Z,0.82
2023-12-30T09:13:06.356Z,1.00
2023-12-30T09:15:36.321Z,1.00
2023-12-30T09:18:06.175Z,1.02
2023-12-30T09:20:40.254Z,0.90
2023-12-30T09:23:13.842Z,1.02
2023-12-30T09:26:03.237Z,1.17
2023-12-30T09:28:37.854Z,1.00
2023-12-30T09:31:12.379Z,1.00
2023-12-30T09:33:44.343Z,1.20
2023-12-30T09:36:14.187Z,1.20
2023-12-30T09:38:43.491Z,1.08
2023-12-30T09:41:15.002Z,0.93
2023-12-30T09:43:46.526Z,1.17
2023-12-30T09:46:17.794Z,0.98
2023-12-30T09:49:56.280Z,1.08
2023-12-30T09:52:02.387Z,1.10
2023-12-30T09:54:45.493Z,1.00
2023-12-30T09:57:29.984Z,0.80
2023-12-30T10:00:01.249Z,0.88
2023-12-30T10:02:34.810Z,0.88
2023-12-30T10:05:06.060Z,1.00
2023-12-30T10:07:36.216Z,1.10
2023-12-30T10:10:06.963Z,0.90
2023-12-30T10:12:36.172Z,1.00
2023-12-30T10:15:08.945Z,0.80
2023-12-30T10:17:40.430Z,1.05
2023-12-30T10:20:11.834Z,1.15
2023-12-30T10:22:41.780Z,1.40
2023-12-30T10:25:14.344Z,1.40
2023-12-30T10:27:43.850Z,1.05
2023-12-30T10:30:17.777Z,0.90
2023-12-30T10:32:49.707Z,1.13
2023-12-30T10:35:22.936Z,1.10
2023-12-30T10:38:06.468Z,0.98
2023-12-30T10:40:42.336Z,1.08
2023-12-30T10:43:13.948Z,1.00
2023-12-30T10:45:45.307Z,1.48
2023-12-30T10:48:14.748Z,1.48
2023-12-30T10:50:51.399Z,1.70
2023-12-30T10:53:41.968Z,0.80
2023-12-30T10:56:14.526Z,1.10
2023-12-30T10:58:51.944Z,1.15
2023-12-30T11:01:47.664Z,1.02
2023-12-30T11:04:17.759Z,0.90
2023-12-30T11:07:13.094Z,1.08
2023-12-30T11:09:45.366Z,1.10
2023-12-30T11:12:15.812Z,1.80
2023-12-30T11:14:45.007Z,4.43
2023-12-30T11:17:35.947Z,4.30
2023-12-30T11:20:34.973Z,19.23
2023-12-30T11:23:06.389Z,26.30
2023-12-30T11:25:57.770Z,15.18
2023-12-30T11:28:34.686Z,9.48
2023-12-30T11:31:04.261Z,5.78
2023-12-30T11:33:34.038Z,4.18
2023-12-30T11:36:07.339Z,2.55
2023-12-30T11:38:41.133Z,2.38
2023-12-30T11:41:34.852Z,6.72
2023-12-30T11:44:07.832Z,6.45
2023-12-30T11:46:40.070Z,3.78
2023-12-30T11:49:12.752Z,2.50
2023-12-30T11:52:02.144Z,1.58
2023-12-30T11:54:51.430Z,1.30
2023-12-30T11:57:29.685Z,1.00
2023-12-30T11:59:59.411Z,0.95
2023-12-30T12:02:30.337Z,0.85
2023-12-30T12:04:59.674Z,1.00
2023-12-30T12:07:31.577Z,1.00
2023-12-30T12:10:01.244Z,1.05
2023-12-30T12:12:56.169Z,1.33
2023-12-30T12:15:27.972Z,1.25
2023-12-30T12:17:58.699Z,1.10
2023-12-30T12:20:31.188Z,1.20
2023-12-30T12:23:01.932Z,0.90
2023-12-30T12:25:31.429Z,0.98
2023-12-30T12:28:08.202Z,0.95
2023-12-30T12:30:38.035Z,0.88
2023-12-30T12:33:08.011Z,1.25
2023-12-30T12:35:37.645Z,1.15
2023-12-30T12:38:06.983Z,0.93
2023-12-30T12:40:36.405Z,1.00
2023-12-30T12:43:08.649Z,0.90
2023-12-30T12:45:43.167Z,0.93
2023-12-30T12:48:14.959Z,1.00
2023-12-30T12:50:45.868Z,0.90
2023-12-30T12:53:15.147Z,0.80
2023-12-30T12:55:44.535Z,0.95
2023-12-30T12:58:14.470Z,1.00
2023-12-30T13:00:46.418Z,1.08
2023-12-30T13:03:19.538Z,1.00
2023-12-30T13:05:48.820Z,1.05
2023-12-30T13:08:19.368Z,0.98
2023-12-30T13:10:50.513Z,0.80
2023-12-30T13:13:21.374Z,0.77
2023-12-30T13:15:50.923Z,1.00
2023-12-30T13:18:22.928Z,1.00
2023-12-30T13:20:52.466Z,0.80
2023-12-30T13:23:25.679Z,0.80
2023-12-30T13:25:55.080Z,1.00
2023-12-30T13:28:26.436Z,0.85
2023-12-30T13:30:56.321Z,0.93
2023-12-30T13:33:28.567Z,1.02
2023-12-30T13:35:58.423Z,0.70
2023-12-30T13:38:35.469Z,0.80
2023-12-30T13:41:08.253Z,1.20
2023-12-30T13:43:39.168Z,0.95
2023-12-30T13:46:26.870Z,1.30
2023-12-30T13:49:36.274Z,1.23
2023-12-30T13:52:21.982Z,0.80
2023-12-30T13:54:51.300Z,1.40
2023-12-30T13:57:25.995Z,0.90
2023-12-30T13:59:55.308Z,1.13
2023-12-30T14:02:27.506Z,0.95
2023-12-30T14:04:59.294Z,1.10
2023-12-30T14:07:31.682Z,1.17
2023-12-30T14:10:17.906Z,2.13
2023-12-30T14:13:20.567Z,2.60
2023-12-30T14:15:51.649Z,1.60
2023-12-30T14:18:22.052Z,1.30
2023-12-30T14:20:51.793Z,1.60
2023-12-30T14:23:20.991Z,1.70
2023-12-30T14:25:53.281Z,1.38
2023-12-30T14:28:24.079Z,1.50
2023-12-30T14:30:54.189Z,1.73
2023-12-30T14:33:26.031Z,1.50
2023-12-30T14:35:55.560Z,1.45
2023-12-30T14:38:27.191Z,1.38
2023-12-30T14:40:59.093Z,1.30
2023-12-30T14:43:28.479Z,1.30
2023-12-30T14:46:00.763Z,1.92
2023-12-30T14:48:35.090Z,8.95
2023-12-30T14:51:09.457Z,6.13
2023-12-30T14:53:38.761Z,7.85
2023-12-30T14:56:10.785Z,4.15
2023-12-30T14:58:43.257Z,2.38
2023-12-30T15:01:13.168Z,2.72
2023-12-30T15:03:43.939Z,2.38
2023-12-30T15:06:15.123Z,1.50
2023-12-30T15:08:44.379Z,1.17
2023-12-30T15:11:13.525Z,2.28
2023-12-30T15:13:44.355Z,2.42
2023-12-30T15:16:14.808Z,2.40
2023-12-30T15:18:43.953Z,2.28
2023-12-30T15:21:13.456Z,2.15
2023-12-30T15:23:44.385Z,1.70
2023-12-30T15:26:19.539Z,1.52
2023-12-30T15:28:49.715Z,1.92
2023-12-30T15:31:20.736Z,1.33
2023-12-30T15:33:50.865Z,1.10
2023-12-30T15:36:24.038Z,1.35
2023-12-30T15:38:53.368Z,1.13
2023-12-30T15:41:25.056Z,1.10
2023-12-30T15:43:54.818Z,1.30
2023-12-30T15:46:29.175Z,1.35
2023-12-30T15:48:58.820Z,1.50
2023-12-30T15:51:28.109Z,1.40
2023-12-30T15:54:00.631Z,1.42
2023-12-30T15:56:32.950Z,1.50
2023-12-30T15:59:02.514Z,1.30
2023-12-30T16:01:31.889Z,1.77
2023-12-30T16:04:08.493Z,2.33
2023-12-30T16:06:38.019Z,2.53
2023-12-30T16:09:08.287Z,2.10
2023-12-30T16:11:42.836Z,2.70
2023-12-30T16:14:32.271Z,4.50
2023-12-30T16:17:05.869Z,6.15
2023-12-30T16:19:39.163Z,3.30
2023-12-30T16:22:08.625Z,3.22
2023-12-30T16:24:38.083Z,1.75
2023-12-30T16:27:07.657Z,1.35
2023-12-30T16:30:00.052Z,2.10
2023-12-30T16:32:31.906Z,3.45
2023-12-30T16:35:01.550Z,2.10
2023-12-30T16:37:33.659Z,1.73
2023-12-30T16:40:03.288Z,1.20
2023-12-30T16:42:40.972Z,1.10
2023-12-30T16:45:12.199Z,1.13
2023-12-30T16:48:03.008Z,1.30
2023-12-30T16:50:37.752Z,1.27
2023-12-30T16:53:07.279Z,1.38
2023-12-30T16:55:40.194Z,1.20
2023-12-30T16:58:12.747Z,1.27
2023-12-30T17:00:42.031Z,1.55
2023-12-30T17:03:12.949Z,1.20
2023-12-30T17:05:57.487Z,1.20
2023-12-30T17:08:38.803Z,1.20
2023-12-30T17:11:08.614Z,1.55
2023-12-30T17:13:50.548Z,1.10
2023-12-30T17:16:32.304Z,1.40
2023-12-30T17:19:07.052Z,1.20
2023-12-30T17:21:39.666Z,1.38
2023-12-30T17:24:09.275Z,1.20
2023-12-30T17:26:42.286Z,1.20
2023-12-30T17:29:11.594Z,1.30
2023-12-30T17:31:40.928Z,1.33
2023-12-30T17:34:14.719Z,1.20
2023-12-30T17:36:46.957Z,1.15
2023-12-30T17:39:19.243Z,1.20
2023-12-30T17:42:11.988Z,1.10
2023-12-30T17:44:41.209Z,1.33
2023-12-30T17:47:11.938Z,1.27
2023-12-30T17:49:41.560Z,1.23
2023-12-30T17:52:12.571Z,1.20
2023-12-30T17:54:44.940Z,1.13
2023-12-30T17:57:14.841Z,1.35
2023-12-30T17:59:46.836Z,1.20
2023-12-30T18:02:20.487Z,1.23
2023-12-30T18:04:50.069Z,1.10
2023-12-30T18:07:19.413Z,1.50
2023-12-30T18:10:19.122Z,1.40
2023-12-30T18:12:50.077Z,1.50
2023-12-30T18:15:23.409Z,1.50
2023-12-30T18:18:13.310Z,1.60
2023-12-30T18:20:43.282Z,1.10
2023-12-30T18:23:20.040Z,1.33
2023-12-30T18:25:49.727Z,1.10
2023-12-30T18:28:20.396Z,1.30
2023-12-30T18:30:55.262Z,1.17
2023-12-30T18:33:25.002Z,1.00
2023-12-30T18:36:13.126Z,1.30
2023-12-30T18:38:45.336Z,1.17
2023-12-30T18:41:17.032Z,1.05
2023-12-30T18:43:52.504Z,1.10
2023-12-30T18:46:21.757Z,1.20
2023-12-30T18:48:51.054Z,1.15
2023-12-30T18:51:23.297Z,1.20
2023-12-30T18:53:53.208Z,1.08
2023-12-30T18:56:22.653Z,0.85
2023-12-30T18:58:53.090Z,1.15
2023-12-30T19:01:22.541Z,1.05
2023-12-30T19:04:15.640Z,1.15
2023-12-30T19:06:58.477Z,1.42
2023-12-30T19:09:29.456Z,1.00
2023-12-30T19:11:58.877Z,0.80
2023-12-30T19:14:32.412Z,0.93
2023-12-30T19:17:02.003Z,0.82
2023-12-30T19:19:51.961Z,1.00
2023-12-30T19:22:22.031Z,1.05
2023-12-30T19:24:51.606Z,1.10
2023-12-30T19:27:25.396Z,0.93
2023-12-30T19:29:54.807Z,0.80
2023-12-30T19:32:27.125Z,1.30
2023-12-30T19:34:59.404Z,0.80
2023-12-30T19:37:31.584Z,0.98
2023-12-30T19:40:00.934Z,1.10
2023-12-30T19:42:30.370Z,0.95
2023-12-30T19:44:59.874Z,0.90
2023-12-30T19:47:55.506Z,0.75
2023-12-30T19:50:30.073Z,1.20
2023-12-30T19:52:59.398Z,1.10
2023-12-30T19:55:35.852Z,1.20
2023-12-30T19:58:05.659Z,1.40
2023-12-30T20:00:37.904Z,1.50
2023-12-30T20:05:58.468Z,1.40
2023-12-30T20:08:35.829Z,1.23
2023-12-30T20:11:05.565Z,1.10
2023-12-30T20:13:44.206Z,1.00
2023-12-30T20:16:26.512Z,1.00
2023-12-30T20:18:58.934Z,1.40
2023-12-30T20:21:30.999Z,1.20
2023-12-30T20:24:32.148Z,1.27
2023-12-30T20:27:04.507Z,1.15
2023-12-30T20:29:34.017Z,1.20
2023-12-30T20:32:05.118Z,1.27
2023-12-30T20:34:34.390Z,1.10
2023-12-30T20:37:06.616Z,1.10
2023-12-30T20:39:36.033Z,1.17
2023-12-30T20:42:05.820Z,0.80
2023-12-30T20:44:35.026Z,0.90
2023-12-30T20:47:05.934Z,1.40
2023-12-30T20:49:36.023Z,1.25
2023-12-30T20:52:07.487Z,1.20
2023-12-30T20:54:40.586Z,1.65
2023-12-30T20:57:10.998Z,1.58
2023-12-30T20:59:42.786Z,1.58
2023-12-30T21:02:17.080Z,2.70
2023-12-30T21:04:48.761Z,1.33
2023-12-30T21:07:20.488Z,2.17
2023-12-30T21:09:49.749Z,1.30
2023-12-30T21:12:40.105Z,1.17
2023-12-30T21:15:12.838Z,1.40
2023-12-30T21:17:42.107Z,1.83
2023-12-30T21:20:14.827Z,1.33
2023-12-30T21:22:50.234Z,1.25
2023-12-30T21:25:26.576Z,1.63
2023-12-30T21:28:11.663Z,1.10
2023-12-30T21:30:41.271Z,1.10
2023-12-30T21:33:13.871Z,1.50
2023-12-30T21:35:48.436Z,1.50
2023-12-30T21:38:20.696Z,1.25
2023-12-30T21:40:50.590Z,1.35
2023-12-30T21:43:22.569Z,1.67
2023-12-30T21:45:53.728Z,1.40
2023-12-30T21:48:43.462Z,1.50
2023-12-30T21:51:43.565Z,1.50
2023-12-30T21:54:14.957Z,1.65
2023-12-30T21:56:44.985Z,1.50
2023-12-30T21:59:14.496Z,1.45
2023-12-30T22:01:47.566Z,1.80
2023-12-30T22:04:19.861Z,1.15
2023-12-30T22:06:51.214Z,1.23
2023-12-30T22:09:23.491Z,0.95
2023-12-30T22:11:52.941Z,1.00
2023-12-30T22:14:23.810Z,1.20
2023-12-30T22:16:55.888Z,1.10
2023-12-30T22:19:26.672Z,1.20
2023-12-30T22:22:18.507Z,1.45
2023-12-30T22:24:51.440Z,1.15
2023-12-30T22:27:22.457Z,1.27
2023-12-30T22:29:55.602Z,1.30
2023-12-30T22:32:47.629Z,1.50
2023-12-30T22:35:20.099Z,1.17
2023-12-30T22:37:49.642Z,1.10
2023-12-30T22:40:42.314Z,1.17
2023-12-30T22:43:13.997Z,1.30
2023-12-30T22:45:43.364Z,1.10
2023-12-30T22:48:15.114Z,1.40
2023-12-30T22:50:45.334Z,1.23
2023-12-30T22:53:44.335Z,1.00
2023-12-30T22:56:15.479Z,1.13
2023-12-30T22:58:44.881Z,1.60
2023-12-30T23:01:18.789Z,1.20
2023-12-30T23:03:50.020Z,1.20
2023-12-30T23:06:22.248Z,1.10
2023-12-30T23:08:53.561Z,1.20
2023-12-30T23:11:23.796Z,0.88
2023-12-30T23:13:53.452Z,1.00
2023-12-30T23:16:23.533Z,0.85
2023-12-30T23:18:57.839Z,1.13
2023-12-30T23:21:38.816Z,1.10
2023-12-30T23:24:22.202Z,1.00
2023-12-30T23:26:51.648Z,1.13
2023-12-30T23:29:30.398Z,1.00
2023-12-30T23:32:19.741Z,1.10
2023-12-30T23:34:50.387Z,1.10
2023-12-30T23:37:20.975Z,1.00
2023-12-30T23:39:50.321Z,0.70
2023-12-30T23:42:25.734Z,0.93
2023-12-30T23:44:55.759Z,0.93
2023-12-30T23:47:25.454Z,1.00
2023-12-30T23:49:56.906Z,0.90
2023-12-30T23:52:26.768Z,0.98
2023-12-30T23:54:56.319Z,0.90
2023-12-30T23:57:28.481Z,0.90
2023-12-30T23:59:57.948Z,1.17
